sensor_id;sensor_type;location;lat;lon;timestamp;P1;durP1;ratioP1;P2;durP2;ratioP2
73980;SDS011;62348;51.412;5.436;2023-01-15T00:03:52;9.45;;;1.90;;
73980;SDS011;62348;51.412;5.436;2023-01-15T00:06:18;4.82;;;1.63;;
73980;SDS011;62348;51.412;5.436;2023-01-15T00:08:44;8.10;;;1.63;;
73980;SDS011;62348;51.412;5.436;2023-01-15T00:11:10;4.10;;;1.50;;
73980;SDS011;62348;51.412;5.436;2023-01-15T00:13:36;6.32;;;1.52;;
73980;SDS011;62348;51.412;5.436;2023-01-15T00:16:02;4.90;;;1.40;;
73980;SDS011;62348;51.412;5.436;2023-01-15T00:18:29;6.75;;;1.65;;
73980;SDS011;62348;51.412;5.436;2023-01-15T00:21:00;4.75;;;1.83;;
73980;SDS011;62348;51.412;5.436;2023-01-15T00:23:27;6.28;;;1.17;;
73980;SDS011;62348;51.412;5.436;2023-01-15T00:26:21;9.02;;;1.95;;
73980;SDS011;62348;51.412;5.436;2023-01-15T00:29:09;8.90;;;1.65;;
73980;SDS011;62348;51.412;5.436;2023-01-15T00:31:34;8.70;;;1.52;;
73980;SDS011;62348;51.412;5.436;2023-01-15T00:34:00;8.15;;;1.55;;
73980;SDS011;62348;51.412;5.436;2023-01-15T00:36:26;4.97;;;1.27;;
73980;SDS011;62348;51.412;5.436;2023-01-15T00:38:51;6.28;;;1.25;;
73980;SDS011;62348;51.412;5.436;2023-01-15T00:41:17;7.03;;;1.42;;
73980;SDS011;62348;51.412;5.436;2023-01-15T00:43:42;8.30;;;1.63;;
73980;SDS011;62348;51.412;5.436;2023-01-15T00:46:08;10.10;;;1.88;;
73980;SDS011;62348;51.412;5.436;2023-01-15T00:48:34;10.65;;;1.40;;
73980;SDS011;62348;51.412;5.436;2023-01-15T00:51:00;8.07;;;1.65;;
73980;SDS011;62348;51.412;5.436;2023-01-15T00:53:26;3.90;;;1.40;;
73980;SDS011;62348;51.412;5.436;2023-01-15T00:55:51;8.05;;;1.50;;
73980;SDS011;62348;51.412;5.436;2023-01-15T00:58:17;7.18;;;1.40;;
73980;SDS011;62348;51.412;5.436;2023-01-15T01:00:42;6.40;;;2.67;;
73980;SDS011;62348;51.412;5.436;2023-01-15T01:03:08;7.13;;;1.42;;
73980;SDS011;62348;51.412;5.436;2023-01-15T01:05:33;6.22;;;1.30;;
73980;SDS011;62348;51.412;5.436;2023-01-15T01:07:59;7.07;;;1.35;;
73980;SDS011;62348;51.412;5.436;2023-01-15T01:10:25;13.35;;;2.42;;
73980;SDS011;62348;51.412;5.436;2023-01-15T01:12:51;6.05;;;1.63;;
73980;SDS011;62348;51.412;5.436;2023-01-15T01:15:20;7.28;;;1.70;;
73980;SDS011;62348;51.412;5.436;2023-01-15T01:17:46;7.97;;;1.67;;
73980;SDS011;62348;51.412;5.436;2023-01-15T01:20:12;7.10;;;1.30;;
73980;SDS011;62348;51.412;5.436;2023-01-15T01:22:38;8.35;;;1.40;;
73980;SDS011;62348;51.412;5.436;2023-01-15T01:25:04;8.20;;;1.38;;
73980;SDS011;62348;51.412;5.436;2023-01-15T01:27:30;6.43;;;1.52;;
73980;SDS011;62348;51.412;5.436;2023-01-15T01:29:56;9.13;;;1.50;;
73980;SDS011;62348;51.412;5.436;2023-01-15T01:32:21;11.35;;;2.58;;
73980;SDS011;62348;51.412;5.436;2023-01-15T01:34:47;2.65;;;1.15;;
73980;SDS011;62348;51.412;5.436;2023-01-15T01:37:12;5.35;;;1.40;;
73980;SDS011;62348;51.412;5.436;2023-01-15T01:39:37;7.32;;;1.88;;
73980;SDS011;62348;51.412;5.436;2023-01-15T01:42:03;9.50;;;1.98;;
73980;SDS011;62348;51.412;5.436;2023-01-15T01:47:02;6.53;;;1.60;;
73980;SDS011;62348;51.412;5.436;2023-01-15T01:49:31;9.57;;;1.60;;
73980;SDS011;62348;51.412;5.436;2023-01-15T01:51:58;7.90;;;1.40;;
73980;SDS011;62348;51.412;5.436;2023-01-15T01:54:28;6.68;;;1.83;;
73980;SDS011;62348;51.412;5.436;2023-01-15T01:56:55;7.38;;;1.50;;
73980;SDS011;62348;51.412;5.436;2023-01-15T01:59:22;10.13;;;1.70;;
73980;SDS011;62348;51.412;5.436;2023-01-15T02:01:49;5.82;;;1.30;;
73980;SDS011;62348;51.412;5.436;2023-01-15T02:04:15;7.47;;;1.60;;
73980;SDS011;62348;51.412;5.436;2023-01-15T02:06:44;5.85;;;1.45;;
73980;SDS011;62348;51.412;5.436;2023-01-15T02:09:10;7.07;;;1.50;;
73980;SDS011;62348;51.412;5.436;2023-01-15T02:11:35;7.35;;;1.27;;
73980;SDS011;62348;51.412;5.436;2023-01-15T02:16:57;8.30;;;1.80;;
73980;SDS011;62348;51.412;5.436;2023-01-15T02:24:50;6.70;;;1.77;;
73980;SDS011;62348;51.412;5.436;2023-01-15T02:27:24;5.68;;;1.50;;
73980;SDS011;62348;51.412;5.436;2023-01-15T02:29:55;5.18;;;1.75;;
73980;SDS011;62348;51.412;5.436;2023-01-15T02:32:56;11.63;;;1.77;;
73980;SDS011;62348;51.412;5.436;2023-01-15T02:35:37;8.07;;;1.60;;
73980;SDS011;62348;51.412;5.436;2023-01-15T02:38:10;15.30;;;2.80;;
73980;SDS011;62348;51.412;5.436;2023-01-15T02:40:39;11.13;;;1.70;;
73980;SDS011;62348;51.412;5.436;2023-01-15T02:43:06;7.57;;;1.65;;
73980;SDS011;62348;51.412;5.436;2023-01-15T02:45:34;6.22;;;1.80;;
73980;SDS011;62348;51.412;5.436;2023-01-15T02:48:14;5.35;;;1.30;;
73980;SDS011;62348;51.412;5.436;2023-01-15T02:50:43;8.68;;;1.70;;
73980;SDS011;62348;51.412;5.436;2023-01-15T02:53:14;6.90;;;1.75;;
73980;SDS011;62348;51.412;5.436;2023-01-15T02:55:48;6.88;;;1.58;;
73980;SDS011;62348;51.412;5.436;2023-01-15T02:58:22;8.82;;;2.03;;
73980;SDS011;62348;51.412;5.436;2023-01-15T03:00:53;5.18;;;1.45;;
73980;SDS011;62348;51.412;5.436;2023-01-15T03:03:36;7.93;;;1.52;;
73980;SDS011;62348;51.412;5.436;2023-01-15T03:06:18;9.20;;;1.63;;
73980;SDS011;62348;51.412;5.436;2023-01-15T03:09:02;9.93;;;1.42;;
73980;SDS011;62348;51.412;5.436;2023-01-15T03:11:29;8.63;;;1.73;;
73980;SDS011;62348;51.412;5.436;2023-01-15T03:14:23;12.52;;;1.88;;
73980;SDS011;62348;51.412;5.436;2023-01-15T03:17:23;8.38;;;1.90;;
73980;SDS011;62348;51.412;5.436;2023-01-15T03:20:08;5.28;;;1.30;;
73980;SDS011;62348;51.412;5.436;2023-01-15T03:22:39;11.48;;;1.95;;
73980;SDS011;62348;51.412;5.436;2023-01-15T03:25:18;11.20;;;1.63;;
73980;SDS011;62348;51.412;5.436;2023-01-15T03:27:48;10.35;;;1.98;;
73980;SDS011;62348;51.412;5.436;2023-01-15T03:30:17;9.98;;;1.90;;
73980;SDS011;62348;51.412;5.436;2023-01-15T03:32:44;13.60;;;1.98;;
73980;SDS011;62348;51.412;5.436;2023-01-15T03:38:10;11.45;;;1.60;;
73980;SDS011;62348;51.412;5.436;2023-01-15T03:40:37;12.18;;;1.92;;
73980;SDS011;62348;51.412;5.436;2023-01-15T03:43:11;8.40;;;2.17;;
73980;SDS011;62348;51.412;5.436;2023-01-15T03:45:58;10.32;;;1.52;;
73980;SDS011;62348;51.412;5.436;2023-01-15T03:48:49;13.77;;;1.92;;
73980;SDS011;62348;51.412;5.436;2023-01-15T03:51:22;8.95;;;1.45;;
73980;SDS011;62348;51.412;5.436;2023-01-15T03:53:55;10.68;;;1.88;;
73980;SDS011;62348;51.412;5.436;2023-01-15T03:56:34;8.00;;;1.52;;
73980;SDS011;62348;51.412;5.436;2023-01-15T03:59:25;9.70;;;1.70;;
73980;SDS011;62348;51.412;5.436;2023-01-15T04:02:02;14.57;;;1.92;;
73980;SDS011;62348;51.412;5.436;2023-01-15T04:04:32;9.13;;;1.70;;
73980;SDS011;62348;51.412;5.436;2023-01-15T04:06:57;7.88;;;1.60;;
73980;SDS011;62348;51.412;5.436;2023-01-15T04:09:24;8.23;;;2.10;;
73980;SDS011;62348;51.412;5.436;2023-01-15T04:11:49;11.27;;;2.17;;
73980;SDS011;62348;51.412;5.436;2023-01-15T04:14:14;11.48;;;2.03;;
73980;SDS011;62348;51.412;5.436;2023-01-15T04:16:40;9.52;;;1.67;;
73980;SDS011;62348;51.412;5.436;2023-01-15T04:19:05;8.60;;;1.70;;
73980;SDS011;62348;51.412;5.436;2023-01-15T04:21:31;7.60;;;1.80;;
73980;SDS011;62348;51.412;5.436;2023-01-15T04:23:56;11.02;;;2.83;;
73980;SDS011;62348;51.412;5.436;2023-01-15T04:26:22;12.77;;;1.77;;
73980;SDS011;62348;51.412;5.436;2023-01-15T04:28:47;12.90;;;2.38;;
73980;SDS011;62348;51.412;5.436;2023-01-15T04:31:13;12.02;;;1.50;;
73980;SDS011;62348;51.412;5.436;2023-01-15T04:33:39;9.90;;;1.88;;
73980;SDS011;62348;51.412;5.436;2023-01-15T04:36:05;10.35;;;1.83;;
73980;SDS011;62348;51.412;5.436;2023-01-15T04:38:31;7.20;;;1.92;;
73980;SDS011;62348;51.412;5.436;2023-01-15T04:41:00;12.68;;;1.58;;
73980;SDS011;62348;51.412;5.436;2023-01-15T04:43:44;9.30;;;2.00;;
73980;SDS011;62348;51.412;5.436;2023-01-15T04:46:28;8.10;;;2.00;;
73980;SDS011;62348;51.412;5.436;2023-01-15T04:48:54;7.90;;;1.55;;
73980;SDS011;62348;51.412;5.436;2023-01-15T04:51:19;7.38;;;2.50;;
73980;SDS011;62348;51.412;5.436;2023-01-15T04:53:45;14.35;;;2.17;;
73980;SDS011;62348;51.412;5.436;2023-01-15T04:56:10;7.35;;;1.70;;
73980;SDS011;62348;51.412;5.436;2023-01-15T04:58:35;8.27;;;2.20;;
73980;SDS011;62348;51.412;5.436;2023-01-15T05:01:02;8.23;;;1.58;;
73980;SDS011;62348;51.412;5.436;2023-01-15T05:03:29;10.93;;;2.00;;
73980;SDS011;62348;51.412;5.436;2023-01-15T05:05:59;8.50;;;3.10;;
73980;SDS011;62348;51.412;5.436;2023-01-15T05:08:26;11.45;;;1.70;;
73980;SDS011;62348;51.412;5.436;2023-01-15T05:10:52;8.90;;;1.83;;
73980;SDS011;62348;51.412;5.436;2023-01-15T05:13:17;12.07;;;1.58;;
73980;SDS011;62348;51.412;5.436;2023-01-15T05:15:42;7.78;;;1.67;;
73980;SDS011;62348;51.412;5.436;2023-01-15T05:18:10;10.70;;;2.78;;
73980;SDS011;62348;51.412;5.436;2023-01-15T05:20:39;7.85;;;2.20;;
73980;SDS011;62348;51.412;5.436;2023-01-15T05:23:04;8.15;;;1.80;;
73980;SDS011;62348;51.412;5.436;2023-01-15T05:25:30;10.85;;;2.30;;
73980;SDS011;62348;51.412;5.436;2023-01-15T05:27:55;9.20;;;1.50;;
73980;SDS011;62348;51.412;5.436;2023-01-15T05:30:21;18.02;;;2.53;;
73980;SDS011;62348;51.412;5.436;2023-01-15T05:32:46;7.20;;;1.42;;
73980;SDS011;62348;51.412;5.436;2023-01-15T05:35:12;8.38;;;1.58;;
73980;SDS011;62348;51.412;5.436;2023-01-15T05:37:37;8.95;;;1.67;;
73980;SDS011;62348;51.412;5.436;2023-01-15T05:40:03;13.52;;;1.75;;
73980;SDS011;62348;51.412;5.436;2023-01-15T05:42:28;10.65;;;1.63;;
73980;SDS011;62348;51.412;5.436;2023-01-15T05:44:54;8.38;;;1.70;;
73980;SDS011;62348;51.412;5.436;2023-01-15T05:47:19;12.52;;;1.52;;
73980;SDS011;62348;51.412;5.436;2023-01-15T05:49:45;8.50;;;1.48;;
73980;SDS011;62348;51.412;5.436;2023-01-15T05:52:12;5.68;;;1.48;;
73980;SDS011;62348;51.412;5.436;2023-01-15T05:54:38;8.55;;;2.20;;
73980;SDS011;62348;51.412;5.436;2023-01-15T05:57:03;7.20;;;1.58;;
73980;SDS011;62348;51.412;5.436;2023-01-15T05:59:29;12.82;;;2.08;;
73980;SDS011;62348;51.412;5.436;2023-01-15T06:01:56;7.30;;;2.60;;
73980;SDS011;62348;51.412;5.436;2023-01-15T06:04:22;10.00;;;1.58;;
73980;SDS011;62348;51.412;5.436;2023-01-15T06:06:49;12.18;;;2.05;;
73980;SDS011;62348;51.412;5.436;2023-01-15T06:09:15;11.85;;;2.15;;
73980;SDS011;62348;51.412;5.436;2023-01-15T06:11:41;7.28;;;1.58;;
73980;SDS011;62348;51.412;5.436;2023-01-15T06:14:07;7.35;;;1.55;;
73980;SDS011;62348;51.412;5.436;2023-01-15T06:16:32;10.38;;;1.90;;
73980;SDS011;62348;51.412;5.436;2023-01-15T06:19:02;7.03;;;1.42;;
73980;SDS011;62348;51.412;5.436;2023-01-15T06:21:29;8.50;;;1.17;;
73980;SDS011;62348;51.412;5.436;2023-01-15T06:23:56;10.20;;;1.60;;
73980;SDS011;62348;51.412;5.436;2023-01-15T06:26:21;8.30;;;1.30;;
73980;SDS011;62348;51.412;5.436;2023-01-15T06:28:47;7.07;;;2.10;;
73980;SDS011;62348;51.412;5.436;2023-01-15T06:31:14;7.07;;;1.30;;
73980;SDS011;62348;51.412;5.436;2023-01-15T06:33:42;10.30;;;2.72;;
73980;SDS011;62348;51.412;5.436;2023-01-15T06:36:09;7.00;;;1.67;;
73980;SDS011;62348;51.412;5.436;2023-01-15T06:38:37;13.52;;;1.63;;
73980;SDS011;62348;51.412;5.436;2023-01-15T06:41:04;5.43;;;1.20;;
73980;SDS011;62348;51.412;5.436;2023-01-15T06:43:51;7.28;;;1.75;;
73980;SDS011;62348;51.412;5.436;2023-01-15T06:46:36;7.72;;;1.63;;
73980;SDS011;62348;51.412;5.436;2023-01-15T06:49:23;7.57;;;1.63;;
73980;SDS011;62348;51.412;5.436;2023-01-15T06:51:49;6.53;;;1.08;;
73980;SDS011;62348;51.412;5.436;2023-01-15T06:54:14;7.00;;;1.13;;
73980;SDS011;62348;51.412;5.436;2023-01-15T06:56:39;8.77;;;1.30;;
73980;SDS011;62348;51.412;5.436;2023-01-15T06:59:05;12.50;;;1.65;;
73980;SDS011;62348;51.412;5.436;2023-01-15T07:01:30;11.05;;;1.67;;
73980;SDS011;62348;51.412;5.436;2023-01-15T07:03:56;8.98;;;1.52;;
73980;SDS011;62348;51.412;5.436;2023-01-15T07:06:21;10.55;;;1.70;;
73980;SDS011;62348;51.412;5.436;2023-01-15T07:08:46;8.32;;;1.52;;
73980;SDS011;62348;51.412;5.436;2023-01-15T07:11:12;4.38;;;1.50;;
73980;SDS011;62348;51.412;5.436;2023-01-15T07:13:38;3.58;;;1.27;;
73980;SDS011;62348;51.412;5.436;2023-01-15T07:16:04;9.32;;;1.75;;
73980;SDS011;62348;51.412;5.436;2023-01-15T07:18:30;14.55;;;1.73;;
73980;SDS011;62348;51.412;5.436;2023-01-15T07:20:57;17.15;;;1.95;;
73980;SDS011;62348;51.412;5.436;2023-01-15T07:23:24;4.55;;;0.93;;
73980;SDS011;62348;51.412;5.436;2023-01-15T07:25:51;6.97;;;1.45;;
73980;SDS011;62348;51.412;5.436;2023-01-15T07:28:17;4.72;;;1.10;;
73980;SDS011;62348;51.412;5.436;2023-01-15T07:30:43;5.85;;;1.88;;
73980;SDS011;62348;51.412;5.436;2023-01-15T07:33:08;2.63;;;0.95;;
73980;SDS011;62348;51.412;5.436;2023-01-15T07:35:34;4.40;;;1.50;;
73980;SDS011;62348;51.412;5.436;2023-01-15T07:38:01;5.45;;;1.38;;
73980;SDS011;62348;51.412;5.436;2023-01-15T07:40:26;6.05;;;1.05;;
73980;SDS011;62348;51.412;5.436;2023-01-15T07:42:52;6.65;;;1.70;;
73980;SDS011;62348;51.412;5.436;2023-01-15T07:45:37;14.20;;;1.67;;
73980;SDS011;62348;51.412;5.436;2023-01-15T07:48:22;5.45;;;1.13;;
73980;SDS011;62348;51.412;5.436;2023-01-15T07:51:06;4.72;;;0.90;;
73980;SDS011;62348;51.412;5.436;2023-01-15T07:53:31;5.28;;;1.30;;
73980;SDS011;62348;51.412;5.436;2023-01-15T07:55:57;7.82;;;1.10;;
73980;SDS011;62348;51.412;5.436;2023-01-15T07:58:22;8.20;;;2.25;;
73980;SDS011;62348;51.412;5.436;2023-01-15T08:00:48;5.70;;;1.23;;
73980;SDS011;62348;51.412;5.436;2023-01-15T08:03:13;6.22;;;1.00;;
73980;SDS011;62348;51.412;5.436;2023-01-15T08:05:39;4.45;;;1.73;;
73980;SDS011;62348;51.412;5.436;2023-01-15T08:08:04;8.73;;;1.15;;
73980;SDS011;62348;51.412;5.436;2023-01-15T08:10:29;5.53;;;1.05;;
73980;SDS011;62348;51.412;5.436;2023-01-15T08:12:55;3.45;;;0.90;;
73980;SDS011;62348;51.412;5.436;2023-01-15T08:15:39;6.78;;;1.10;;
73980;SDS011;62348;51.412;5.436;2023-01-15T08:18:06;5.38;;;1.00;;
73980;SDS011;62348;51.412;5.436;2023-01-15T08:20:32;3.65;;;0.95;;
73980;SDS011;62348;51.412;5.436;2023-01-15T08:22:59;6.47;;;1.17;;
73980;SDS011;62348;51.412;5.436;2023-01-15T08:25:25;9.02;;;1.45;;
73980;SDS011;62348;51.412;5.436;2023-01-15T08:27:51;3.28;;;1.27;;
73980;SDS011;62348;51.412;5.436;2023-01-15T08:30:18;4.80;;;1.10;;
73980;SDS011;62348;51.412;5.436;2023-01-15T08:32:46;5.78;;;1.35;;
73980;SDS011;62348;51.412;5.436;2023-01-15T08:35:11;7.07;;;1.45;;
73980;SDS011;62348;51.412;5.436;2023-01-15T08:37:38;4.90;;;1.10;;
73980;SDS011;62348;51.412;5.436;2023-01-15T08:40:04;9.10;;;2.75;;
73980;SDS011;62348;51.412;5.436;2023-01-15T08:42:30;8.43;;;1.30;;
73980;SDS011;62348;51.412;5.436;2023-01-15T08:44:55;9.57;;;1.92;;
73980;SDS011;62348;51.412;5.436;2023-01-15T08:47:21;6.95;;;2.05;;
73980;SDS011;62348;51.412;5.436;2023-01-15T08:49:46;11.57;;;2.47;;
73980;SDS011;62348;51.412;5.436;2023-01-15T08:52:14;19.65;;;3.33;;
73980;SDS011;62348;51.412;5.436;2023-01-15T08:54:40;7.70;;;2.17;;
73980;SDS011;62348;51.412;5.436;2023-01-15T08:57:05;7.65;;;1.75;;
73980;SDS011;62348;51.412;5.436;2023-01-15T08:59:33;10.35;;;3.70;;
73980;SDS011;62348;51.412;5.436;2023-01-15T09:01:58;10.05;;;2.78;;
73980;SDS011;62348;51.412;5.436;2023-01-15T09:04:24;9.45;;;3.00;;
73980;SDS011;62348;51.412;5.436;2023-01-15T09:06:50;8.63;;;2.25;;
73980;SDS011;62348;51.412;5.436;2023-01-15T09:09:15;14.57;;;2.63;;
73980;SDS011;62348;51.412;5.436;2023-01-15T09:11:42;5.43;;;2.08;;
73980;SDS011;62348;51.412;5.436;2023-01-15T09:14:09;7.68;;;2.00;;
73980;SDS011;62348;51.412;5.436;2023-01-15T09:16:37;9.10;;;1.35;;
73980;SDS011;62348;51.412;5.436;2023-01-15T09:19:03;10.05;;;2.20;;
73980;SDS011;62348;51.412;5.436;2023-01-15T09:21:30;10.00;;;3.10;;
73980;SDS011;62348;51.412;5.436;2023-01-15T09:23:55;10.63;;;2.55;;
73980;SDS011;62348;51.412;5.436;2023-01-15T09:26:28;10.60;;;2.17;;
73980;SDS011;62348;51.412;5.436;2023-01-15T09:28:54;10.73;;;2.13;;
73980;SDS011;62348;51.412;5.436;2023-01-15T09:31:20;8.57;;;2.28;;
73980;SDS011;62348;51.412;5.436;2023-01-15T09:33:46;7.40;;;1.90;;
73980;SDS011;62348;51.412;5.436;2023-01-15T09:36:19;9.48;;;2.08;;
73980;SDS011;62348;51.412;5.436;2023-01-15T09:38:51;10.93;;;2.42;;
73980;SDS011;62348;51.412;5.436;2023-01-15T09:41:17;5.57;;;1.65;;
73980;SDS011;62348;51.412;5.436;2023-01-15T09:44:17;6.95;;;1.70;;
73980;SDS011;62348;51.412;5.436;2023-01-15T09:47:08;11.05;;;1.88;;
73980;SDS011;62348;51.412;5.436;2023-01-15T09:49:42;8.20;;;1.83;;
73980;SDS011;62348;51.412;5.436;2023-01-15T09:57:22;8.52;;;2.70;;
73980;SDS011;62348;51.412;5.436;2023-01-15T09:59:49;7.82;;;2.10;;
73980;SDS011;62348;51.412;5.436;2023-01-15T10:02:26;11.82;;;2.35;;
73980;SDS011;62348;51.412;5.436;2023-01-15T10:05:06;13.15;;;3.05;;
73980;SDS011;62348;51.412;5.436;2023-01-15T10:07:42;14.05;;;3.22;;
73980;SDS011;62348;51.412;5.436;2023-01-15T10:10:16;15.40;;;3.97;;
73980;SDS011;62348;51.412;5.436;2023-01-15T10:12:47;9.82;;;2.50;;
73980;SDS011;62348;51.412;5.436;2023-01-15T10:15:21;11.88;;;3.22;;
73980;SDS011;62348;51.412;5.436;2023-01-15T10:17:56;7.53;;;2.38;;
73980;SDS011;62348;51.412;5.436;2023-01-15T10:23:33;16.83;;;6.82;;
73980;SDS011;62348;51.412;5.436;2023-01-15T10:31:23;19.02;;;6.57;;
73980;SDS011;62348;51.412;5.436;2023-01-15T10:34:04;16.40;;;5.68;;
73980;SDS011;62348;51.412;5.436;2023-01-15T10:36:57;11.18;;;3.30;;
73980;SDS011;62348;51.412;5.436;2023-01-15T10:39:35;11.45;;;2.30;;
73980;SDS011;62348;51.412;5.436;2023-01-15T10:47:35;5.93;;;1.40;;
73980;SDS011;62348;51.412;5.436;2023-01-15T10:50:08;8.85;;;1.50;;
73980;SDS011;62348;51.412;5.436;2023-01-15T10:52:45;14.07;;;1.95;;
73980;SDS011;62348;51.412;5.436;2023-01-15T10:55:24;5.78;;;1.13;;
73980;SDS011;62348;51.412;5.436;2023-01-15T10:58:00;8.23;;;1.30;;
73980;SDS011;62348;51.412;5.436;2023-01-15T11:00:35;7.70;;;1.60;;
73980;SDS011;62348;51.412;5.436;2023-01-15T11:03:09;4.18;;;1.27;;
73980;SDS011;62348;51.412;5.436;2023-01-15T11:05:42;6.95;;;2.40;;
73980;SDS011;62348;51.412;5.436;2023-01-15T11:08:17;3.45;;;1.10;;
73980;SDS011;62348;51.412;5.436;2023-01-15T11:10:50;6.70;;;1.80;;
73980;SDS011;62348;51.412;5.436;2023-01-15T11:13:22;3.38;;;0.82;;
73980;SDS011;62348;51.412;5.436;2023-01-15T11:16:14;7.17;;;1.20;;
73980;SDS011;62348;51.412;5.436;2023-01-15T11:19:01;3.85;;;1.13;;
73980;SDS011;62348;51.412;5.436;2023-01-15T11:21:46;5.82;;;0.80;;
73980;SDS011;62348;51.412;5.436;2023-01-15T11:24:14;3.22;;;0.70;;
73980;SDS011;62348;51.412;5.436;2023-01-15T11:26:44;2.03;;;0.70;;
73980;SDS011;62348;51.412;5.436;2023-01-15T11:29:20;5.63;;;1.40;;
73980;SDS011;62348;51.412;5.436;2023-01-15T11:32:00;2.72;;;1.20;;
73980;SDS011;62348;51.412;5.436;2023-01-15T11:34:26;3.47;;;1.10;;
73980;SDS011;62348;51.412;5.436;2023-01-15T11:37:00;3.92;;;1.13;;
73980;SDS011;62348;51.412;5.436;2023-01-15T11:39:27;5.80;;;1.40;;
73980;SDS011;62348;51.412;5.436;2023-01-15T11:42:02;3.85;;;0.77;;
73980;SDS011;62348;51.412;5.436;2023-01-15T11:44:51;3.92;;;0.90;;
73980;SDS011;62348;51.412;5.436;2023-01-15T11:47:49;3.03;;;0.93;;
73980;SDS011;62348;51.412;5.436;2023-01-15T11:50:51;3.35;;;0.77;;
73980;SDS011;62348;51.412;5.436;2023-01-15T11:53:23;3.60;;;0.87;;
73980;SDS011;62348;51.412;5.436;2023-01-15T11:55:57;4.97;;;1.40;;
73980;SDS011;62348;51.412;5.436;2023-01-15T11:58:28;5.33;;;0.90;;
73980;SDS011;62348;51.412;5.436;2023-01-15T12:00:57;6.07;;;1.05;;
73980;SDS011;62348;51.412;5.436;2023-01-15T12:03:25;4.40;;;1.00;;
73980;SDS011;62348;51.412;5.436;2023-01-15T12:05:54;4.20;;;0.98;;
73980;SDS011;62348;51.412;5.436;2023-01-15T12:08:27;3.15;;;0.90;;
73980;SDS011;62348;51.412;5.436;2023-01-15T12:16:44;3.55;;;1.40;;
73980;SDS011;62348;51.412;5.436;2023-01-15T12:30:41;3.47;;;1.10;;
73980;SDS011;62348;51.412;5.436;2023-01-15T12:33:15;3.35;;;0.85;;
73980;SDS011;62348;51.412;5.436;2023-01-15T12:43:48;7.18;;;1.08;;
73980;SDS011;62348;51.412;5.436;2023-01-15T12:46:39;6.00;;;1.38;;
73980;SDS011;62348;51.412;5.436;2023-01-15T12:52:05;7.47;;;1.88;;
73980;SDS011;62348;51.412;5.436;2023-01-15T12:54:38;5.18;;;1.27;;
73980;SDS011;62348;51.412;5.436;2023-01-15T12:57:56;4.47;;;1.67;;
73980;SDS011;62348;51.412;5.436;2023-01-15T13:00:14;6.50;;;1.40;;
73980;SDS011;62348;51.412;5.436;2023-01-15T13:05:33;6.65;;;1.48;;
73980;SDS011;62348;51.412;5.436;2023-01-15T13:08:09;3.90;;;1.40;;
73980;SDS011;62348;51.412;5.436;2023-01-15T13:10:40;5.75;;;1.20;;
73980;SDS011;62348;51.412;5.436;2023-01-15T13:13:20;6.15;;;0.85;;
73980;SDS011;62348;51.412;5.436;2023-01-15T13:18:46;6.15;;;1.23;;
73980;SDS011;62348;51.412;5.436;2023-01-15T13:21:15;4.47;;;1.10;;
73980;SDS011;62348;51.412;5.436;2023-01-15T13:31:43;5.50;;;1.27;;
73980;SDS011;62348;51.412;5.436;2023-01-15T13:37:08;1.58;;;0.80;;
73980;SDS011;62348;51.412;5.436;2023-01-15T13:39:43;2.25;;;1.08;;
73980;SDS011;62348;51.412;5.436;2023-01-15T13:42:19;5.88;;;1.30;;
73980;SDS011;62348;51.412;5.436;2023-01-15T13:44:56;4.65;;;1.20;;
73980;SDS011;62348;51.412;5.436;2023-01-15T13:47:26;5.88;;;1.05;;
73980;SDS011;62348;51.412;5.436;2023-01-15T13:49:58;1.88;;;1.27;;
73980;SDS011;62348;51.412;5.436;2023-01-15T13:52:30;4.55;;;1.17;;
73980;SDS011;62348;51.412;5.436;2023-01-15T13:55:06;10.95;;;2.58;;
73980;SDS011;62348;51.412;5.436;2023-01-15T13:57:39;4.18;;;1.10;;
73980;SDS011;62348;51.412;5.436;2023-01-15T14:02:54;7.32;;;1.80;;
73980;SDS011;62348;51.412;5.436;2023-01-15T14:05:33;9.02;;;2.03;;
73980;SDS011;62348;51.412;5.436;2023-01-15T14:08:00;3.15;;;0.90;;
73980;SDS011;62348;51.412;5.436;2023-01-15T14:10:38;7.72;;;2.10;;
73980;SDS011;62348;51.412;5.436;2023-01-15T14:27:13;6.55;;;1.65;;
73980;SDS011;62348;51.412;5.436;2023-01-15T14:35:35;6.32;;;1.10;;
73980;SDS011;62348;51.412;5.436;2023-01-15T14:38:04;3.42;;;1.25;;
73980;SDS011;62348;51.412;5.436;2023-01-15T14:40:32;3.45;;;1.23;;
73980;SDS011;62348;51.412;5.436;2023-01-15T14:43:07;2.58;;;0.82;;
73980;SDS011;62348;51.412;5.436;2023-01-15T14:45:42;5.88;;;1.35;;
73980;SDS011;62348;51.412;5.436;2023-01-15T14:50:52;5.15;;;1.17;;
73980;SDS011;62348;51.412;5.436;2023-01-15T14:53:22;4.45;;;1.05;;
73980;SDS011;62348;51.412;5.436;2023-01-15T14:56:12;3.70;;;1.33;;
73980;SDS011;62348;51.412;5.436;2023-01-15T15:03:46;3.15;;;0.75;;
73980;SDS011;62348;51.412;5.436;2023-01-15T15:06:18;3.22;;;1.20;;
73980;SDS011;62348;51.412;5.436;2023-01-15T15:08:44;3.50;;;0.95;;
73980;SDS011;62348;51.412;5.436;2023-01-15T15:11:14;4.63;;;0.75;;
73980;SDS011;62348;51.412;5.436;2023-01-15T15:14:17;4.82;;;2.75;;
73980;SDS011;62348;51.412;5.436;2023-01-15T15:16:46;3.42;;;1.25;;
73980;SDS011;62348;51.412;5.436;2023-01-15T15:19:20;2.78;;;1.88;;
73980;SDS011;62348;51.412;5.436;2023-01-15T15:21:52;3.10;;;1.35;;
73980;SDS011;62348;51.412;5.436;2023-01-15T15:24:25;2.97;;;0.90;;
73980;SDS011;62348;51.412;5.436;2023-01-15T15:29:20;4.38;;;0.90;;
73980;SDS011;62348;51.412;5.436;2023-01-15T15:31:47;6.35;;;1.63;;
73980;SDS011;62348;51.412;5.436;2023-01-15T15:34:25;4.03;;;0.68;;
73980;SDS011;62348;51.412;5.436;2023-01-15T15:39:19;5.40;;;0.98;;
73980;SDS011;62348;51.412;5.436;2023-01-15T15:41:53;4.47;;;1.95;;
73980;SDS011;62348;51.412;5.436;2023-01-15T15:44:46;1.45;;;0.90;;
73980;SDS011;62348;51.412;5.436;2023-01-15T15:47:38;3.22;;;0.88;;
73980;SDS011;62348;51.412;5.436;2023-01-15T15:50:25;2.97;;;1.00;;
73980;SDS011;62348;51.412;5.436;2023-01-15T15:52:53;2.47;;;1.27;;
73980;SDS011;62348;51.412;5.436;2023-01-15T15:55:20;2.97;;;1.10;;
73980;SDS011;62348;51.412;5.436;2023-01-15T15:57:48;5.63;;;1.90;;
73980;SDS011;62348;51.412;5.436;2023-01-15T16:00:27;6.57;;;1.80;;
73980;SDS011;62348;51.412;5.436;2023-01-15T16:02:55;3.85;;;1.20;;
73980;SDS011;62348;51.412;5.436;2023-01-15T16:05:25;7.80;;;2.25;;
73980;SDS011;62348;51.412;5.436;2023-01-15T16:08:15;5.78;;;1.95;;
73980;SDS011;62348;51.412;5.436;2023-01-15T16:10:42;5.30;;;2.90;;
73980;SDS011;62348;51.412;5.436;2023-01-15T16:13:17;6.93;;;1.10;;
73980;SDS011;62348;51.412;5.436;2023-01-15T16:15:50;3.88;;;1.63;;
73980;SDS011;62348;51.412;5.436;2023-01-15T16:18:21;7.15;;;1.90;;
73980;SDS011;62348;51.412;5.436;2023-01-15T16:20:50;3.20;;;1.20;;
73980;SDS011;62348;51.412;5.436;2023-01-15T16:23:23;3.30;;;1.13;;
73980;SDS011;62348;51.412;5.436;2023-01-15T16:25:58;4.72;;;1.50;;
73980;SDS011;62348;51.412;5.436;2023-01-15T16:28:33;4.65;;;1.30;;
73980;SDS011;62348;51.412;5.436;2023-01-15T16:31:04;5.07;;;2.20;;
73980;SDS011;62348;51.412;5.436;2023-01-15T16:33:30;5.03;;;1.95;;
73980;SDS011;62348;51.412;5.436;2023-01-15T16:35:58;5.57;;;2.17;;
73980;SDS011;62348;51.412;5.436;2023-01-15T16:38:28;5.55;;;2.22;;
73980;SDS011;62348;51.412;5.436;2023-01-15T16:40:57;6.65;;;2.40;;
73980;SDS011;62348;51.412;5.436;2023-01-15T16:43:23;8.57;;;3.05;;
73980;SDS011;62348;51.412;5.436;2023-01-15T16:45:56;5.13;;;1.55;;
73980;SDS011;62348;51.412;5.436;2023-01-15T16:50:54;18.25;;;8.35;;
73980;SDS011;62348;51.412;5.436;2023-01-15T16:56:03;16.42;;;5.40;;
73980;SDS011;62348;51.412;5.436;2023-01-15T17:01:00;10.32;;;4.43;;
73980;SDS011;62348;51.412;5.436;2023-01-15T17:03:46;13.25;;;6.03;;
73980;SDS011;62348;51.412;5.436;2023-01-15T17:06:11;7.22;;;3.05;;
73980;SDS011;62348;51.412;5.436;2023-01-15T17:08:41;6.30;;;3.15;;
73980;SDS011;62348;51.412;5.436;2023-01-15T17:11:43;9.32;;;4.85;;